Warning: Javascript must be enabled to use all the features on this page!


Page Loading - Please Wait...

* We've detected you're using a mobile device. Find our Next Generation Station Page here.
Click to hideNews Bulletins

Peak Streamflow for the Nation

USGS 05414820 SINSINAWA RIVER NEAR MENOMINEE, IL

Jo Daviess County, Illinois
Hydrologic Unit Code 07060005
Latitude  42°28'43", Longitude  90°29'12" NAD83
Drainage area 39.6  square miles
Gage datum 640.75 feet above NGVD29
Output formats
Table
Graph
Tab-separated file
peakfq (watstore) format
Reselect output format
Water
Year
Date Gage
Height
(feet)
Stream-
flow
(cfs)
1968 1968-02-01 7.95 1,220
1969 1969-06-29 13.34 11,600
1970 1970-06-15 12.89 10,200
1971 1971-03-14 8.732 1,930
1972 1972-09-13 12.14 7,740
1973 1972-12-30 10.921 4,5002
1974 1974-05-22 10.64 4,360
1975 1975-03-22 9.63 3,460
1976 1976-03-04 8.36 2,340
1977 1977-07-18 11.99 7,940
1978 1978-06-16 8.06 1,610
1979 1979-08-17 8.20 1,740
1980 1980-03-15 8.42 1,970
1981 1981-02-22 7.64 1,240
1982 1982-03-12 10.17 4,300
1983 1982-12-02 9.39 3,130
1984 1984-06-18 7.43 1,080
1985 1985-02-21 7.742 1,330
1986 1986-09-29 11.42 6,660
1987 1986-10-04   3302
1988 1988-01-30 6.822 671
1989 1989-03-10 8.75 2,340
1990 1990-08-19 7.98 1,540
1991 1991-04-28 9.23 2,920
1992 1992-02-18 7.45 1,090
1993 1993-07-05 13.20 10,900
1994 1994-03-07 8.48 1,950
1995 1995-05-09 7.87 1,390
1996 1996-02-10 9.32 2,850
1997 1997-02-21 10.72 4,380
1998 1998-06-18 10.43 3,800
1999 1999-05-17 14.37 17,000
2000 2000-07-02 8.03 1,050
2001 2001-06-17 7.29 758
2002 2002-06-04 12.01 7,630
2003 2002-10-04 7.51 841
2004 2004-05-23 10.34 3,640
2005 2005-02-13 7.75 936
2006 2006-03-09 6.19 331
2007 2007-08-22 8.27 1,160
2008 2008-06-08 10.92 4,790
2009 2009-03-08 9.99 3,040
2010 2010-07-23 12.62 9,650
2011 2011-07-28 13.79 14,500
2012 2012-02-29 6.04 234
2013 2013-03-10 9.82 2,780
2014 2014-06-19 11.66 6,620
2015 2015-06-20 7.77 844
2016 2016-06-14 8.82 1,550
2017 2017-07-22 13.71 14,200
2018 2018-02-20 10.282 2,500
2019 2019-09-12 11.91 7,330
2020 2019-10-01 11.76 6,900
2021 2020-10-23 6.16 263
?
  Peak Gage-Height Qualification Codes.
?
  Peak Streamflow Qualification Codes.